createdAt,value
2016-10-19T19:15:45.182Z,630
2016-10-19T19:16:01.968Z,625
2016-10-19T19:16:18.979Z,615
2016-10-19T19:16:35.743Z,605
2016-10-19T19:16:53.150Z,600
2016-10-19T19:17:09.914Z,595
2016-10-19T19:17:26.708Z,595
2016-10-19T19:17:43.490Z,590
2016-10-19T19:18:32.206Z,590
2016-10-19T19:18:48.962Z,585
2016-10-19T19:19:06.094Z,580
2016-10-19T19:19:22.952Z,580
2016-10-19T19:19:39.829Z,575
2016-10-19T19:19:56.600Z,575
2016-10-19T19:20:13.886Z,565
2016-10-19T19:20:30.702Z,565
2016-10-19T19:20:47.436Z,565
2016-10-19T19:21:04.193Z,615
2016-10-19T19:21:20.931Z,825
2016-10-19T19:21:37.692Z,905
2016-10-19T19:21:54.442Z,985
2016-10-19T19:22:11.177Z,1020
2016-10-19T19:22:27.935Z,1045
2016-10-19T19:22:44.712Z,1050
2016-10-19T19:23:01.502Z,1065
2016-10-19T19:23:18.280Z,1060
2016-10-19T19:23:35.089Z,1065
2016-10-19T19:23:51.832Z,1065
2016-10-19T19:24:09.666Z,1065
2016-10-19T19:24:26.400Z,1080
2016-10-19T19:24:43.176Z,1085
2016-10-19T19:24:59.915Z,1080
2016-10-19T19:25:16.666Z,1085
2016-10-19T19:25:33.431Z,1095
2016-10-19T19:25:50.280Z,1105
2016-10-19T19:26:07.019Z,1120
2016-10-19T19:26:23.814Z,1125
2016-10-19T19:26:40.561Z,1135
2016-10-19T19:26:57.294Z,1150
2016-10-19T19:27:14.066Z,1165
2016-10-19T19:27:30.863Z,1180
2016-10-19T19:27:47.621Z,1210
2016-10-19T19:28:04.382Z,1230
2016-10-19T19:28:21.124Z,1235
2016-10-19T19:28:37.839Z,1225
2016-10-19T19:28:54.643Z,1205
2016-10-19T19:29:11.406Z,1185
2016-10-19T19:29:28.260Z,1155
2016-10-19T19:29:45.068Z,1145
2016-10-19T19:30:01.830Z,1150
2016-10-19T19:30:18.650Z,1150
2016-10-19T19:30:35.477Z,1150
2016-10-19T19:30:53.679Z,1100
2016-10-19T19:31:10.980Z,730
2016-10-19T19:31:27.782Z,795
2016-10-19T19:31:44.549Z,885
2016-10-19T19:32:01.327Z,790
2016-10-19T19:32:20.780Z,760
2016-10-19T19:32:37.557Z,845
2016-10-19T19:32:54.357Z,860
2016-10-19T19:33:11.676Z,755
2016-10-19T19:33:28.554Z,755
2016-10-19T19:33:45.469Z,890
2016-10-19T19:34:02.239Z,955
2016-10-19T19:34:19.029Z,1005
2016-10-19T19:34:35.812Z,1090
2016-10-19T19:34:52.543Z,1100
2016-10-19T19:35:09.839Z,1110
2016-10-19T19:35:26.616Z,1135
2016-10-19T19:35:43.380Z,1140
2016-10-19T19:36:00.131Z,1150
2016-10-19T19:36:16.860Z,1160
2016-10-19T19:36:34.148Z,1145
2016-10-19T19:36:50.962Z,1135
2016-10-19T19:37:07.766Z,1125
2016-10-19T19:37:24.491Z,1105
2016-10-19T19:37:41.293Z,1095
2016-10-19T19:37:58.031Z,1095
2016-10-19T19:38:14.771Z,1085
2016-10-19T19:38:31.565Z,1080
2016-10-19T19:38:48.340Z,1075
2016-10-19T19:39:05.132Z,1060
2016-10-19T19:39:21.925Z,1045
2016-10-19T19:39:38.683Z,1045
2016-10-19T19:39:55.441Z,1035
2016-10-19T19:40:12.222Z,1015
2016-10-19T19:40:29.018Z,995
2016-10-19T19:40:45.826Z,995
2016-10-19T19:41:02.590Z,990
2016-10-19T19:41:19.348Z,965
2016-10-19T19:41:36.111Z,935
2016-10-19T19:41:52.868Z,920
2016-10-19T19:42:09.625Z,900
2016-10-19T19:42:26.374Z,890
2016-10-19T19:42:43.141Z,875
2016-10-19T19:42:59.896Z,865
2016-10-19T19:43:17.163Z,835
2016-10-19T19:43:33.911Z,815
2016-10-19T19:43:50.673Z,795
2016-10-19T19:44:07.432Z,775
2016-10-19T19:44:24.193Z,760
2016-10-19T19:44:41.459Z,750
2016-10-19T19:44:58.221Z,745
2016-10-19T19:45:14.969Z,745
2016-10-19T19:45:31.737Z,755
2016-10-19T19:45:48.515Z,765
2016-10-19T19:46:05.257Z,775
2016-10-19T19:46:22.535Z,770
2016-10-19T19:46:39.378Z,775
2016-10-19T19:46:56.287Z,775
2016-10-19T19:47:13.125Z,765
2016-10-19T19:47:29.884Z,770
2016-10-19T19:47:46.640Z,775
2016-10-19T19:48:03.407Z,795
2016-10-19T19:48:20.160Z,820
2016-10-19T19:48:36.914Z,830
2016-10-19T19:48:53.659Z,840
2016-10-19T19:49:10.678Z,835
2016-10-19T19:49:27.427Z,825
2016-10-19T19:49:44.218Z,810
2016-10-19T19:50:15.455Z,775
2016-10-19T19:50:32.223Z,770
2016-10-19T19:50:48.965Z,770
2016-10-19T19:51:05.712Z,765
2016-10-19T19:51:22.477Z,755
2016-10-19T19:51:39.275Z,750
2016-10-19T19:51:56.037Z,755
2016-10-19T19:52:12.854Z,760
2016-10-19T19:52:29.612Z,770
2016-10-19T19:52:46.369Z,770
2016-10-19T19:53:03.144Z,780
2016-10-19T19:53:19.895Z,790
2016-10-19T19:53:36.644Z,795
2016-10-19T19:53:53.534Z,795
2016-10-19T19:54:10.309Z,795
2016-10-19T19:54:27.084Z,795
2016-10-19T19:54:43.868Z,800
2016-10-19T19:55:00.622Z,795
2016-10-19T19:55:17.361Z,785
2016-10-19T19:55:34.104Z,780
2016-10-19T19:55:50.830Z,775
2016-10-19T19:56:07.621Z,770
2016-10-19T19:56:25.040Z,760
2016-10-19T19:56:41.822Z,755
2016-10-19T19:56:58.608Z,755
2016-10-19T19:57:15.373Z,745
2016-10-19T19:57:32.120Z,740
2016-10-19T19:57:48.905Z,725
2016-10-19T19:58:05.665Z,725
2016-10-19T19:58:22.430Z,715
2016-10-19T19:58:39.243Z,705
2016-10-19T19:58:56.478Z,700
2016-10-19T19:59:13.233Z,690
2016-10-19T19:59:30.244Z,680
2016-10-19T19:59:47.015Z,675
2016-10-19T20:00:04.284Z,675
2016-10-19T20:00:21.019Z,680
2016-10-19T20:00:37.776Z,680
2016-10-19T20:00:54.505Z,690
2016-10-19T20:01:11.291Z,690
2016-10-19T20:01:28.097Z,690
2016-10-19T20:01:44.865Z,685
2016-10-19T20:02:01.609Z,685
2016-10-19T20:02:18.342Z,680
2016-10-19T20:02:35.595Z,665
2016-10-19T20:02:52.336Z,655
2016-10-19T20:03:09.134Z,645
2016-10-19T20:03:25.866Z,645
2016-10-19T20:03:42.635Z,645
2016-10-19T20:03:59.470Z,650
2016-10-19T20:04:16.253Z,640
2016-10-19T20:04:33.050Z,635
2016-10-19T20:04:49.790Z,645
2016-10-19T20:05:06.566Z,630
2016-10-19T20:05:23.285Z,645
2016-10-19T20:05:40.044Z,635
2016-10-19T20:05:56.804Z,625
2016-10-19T20:06:13.578Z,615
2016-10-19T20:06:30.345Z,595
2016-10-19T20:06:47.677Z,590
2016-10-19T20:07:04.924Z,575
2016-10-19T20:07:22.229Z,560
2016-10-19T20:07:39.000Z,550
2016-10-19T20:07:55.748Z,545
2016-10-19T20:08:12.569Z,540
2016-10-19T20:08:29.329Z,540
2016-10-19T20:08:46.619Z,535
2016-10-19T20:09:03.486Z,535
2016-10-19T20:09:20.898Z,530
2016-10-19T20:09:37.713Z,525
2016-10-19T20:09:54.994Z,520
2016-10-19T20:10:11.761Z,510
2016-10-19T20:10:28.517Z,500
2016-10-19T20:10:45.778Z,490
2016-10-19T20:11:02.537Z,490
2016-10-19T20:11:19.289Z,490
2016-10-19T20:11:36.022Z,495
2016-10-19T20:11:52.786Z,495
2016-10-19T20:12:09.561Z,500
2016-10-19T20:12:26.283Z,500
2016-10-19T20:12:43.040Z,500
2016-10-19T20:12:59.774Z,500
2016-10-19T20:13:16.515Z,500
2016-10-19T20:13:33.282Z,505
2016-10-19T20:13:50.022Z,515
2016-10-19T20:14:06.824Z,525
2016-10-19T20:14:23.587Z,520
2016-10-19T20:14:40.381Z,520
2016-10-19T20:14:57.151Z,515
2016-10-19T20:15:13.954Z,515
2016-10-19T20:15:31.258Z,520
2016-10-19T20:15:48.011Z,510
2016-10-19T20:16:04.781Z,515
2016-10-19T20:16:21.541Z,515
2016-10-19T20:16:38.288Z,510
2016-10-19T20:16:55.534Z,505
2016-10-19T20:17:12.286Z,495
2016-10-19T20:17:29.033Z,490
2016-10-19T20:17:45.805Z,480
2016-10-19T20:18:02.541Z,475
2016-10-19T20:18:19.277Z,470
2016-10-19T20:18:36.043Z,465
2016-10-19T20:18:53.324Z,455
2016-10-19T20:19:10.070Z,455
2016-10-19T20:19:26.847Z,450
2016-10-19T20:19:43.641Z,445
2016-10-19T20:20:00.390Z,440
2016-10-19T20:20:17.141Z,440
2016-10-19T20:20:33.894Z,440
2016-10-19T20:20:50.641Z,450
2016-10-19T20:21:07.390Z,455
2016-10-19T20:21:24.119Z,465
2016-10-19T20:21:40.871Z,470
2016-10-19T20:21:57.664Z,475
2016-10-19T20:22:14.415Z,470
2016-10-19T20:22:31.176Z,465
2016-10-19T20:22:47.926Z,460
2016-10-19T20:23:04.691Z,460
2016-10-19T20:23:21.446Z,455
2016-10-19T20:23:38.208Z,460
2016-10-19T20:23:54.953Z,460
2016-10-19T20:24:11.817Z,465
2016-10-19T20:24:28.626Z,465
2016-10-19T20:24:45.409Z,465
2016-10-19T20:25:02.194Z,455
2016-10-19T20:25:18.952Z,455
2016-10-19T20:25:35.673Z,445
2016-10-19T20:25:52.413Z,445
2016-10-19T20:26:09.158Z,445
2016-10-19T20:26:25.894Z,445
2016-10-19T20:26:42.642Z,435
2016-10-19T20:26:59.401Z,415
2016-10-19T20:27:16.174Z,405
2016-10-19T20:27:32.944Z,395
2016-10-19T20:27:49.691Z,395
2016-10-19T20:28:06.436Z,395
2016-10-19T20:28:23.750Z,395
2016-10-19T20:28:40.493Z,385
2016-10-19T20:28:57.225Z,375
2016-10-19T20:29:14.054Z,375
2016-10-19T20:29:30.813Z,365
2016-10-19T20:29:47.578Z,360
2016-10-19T20:30:04.363Z,355
2016-10-19T20:30:21.194Z,345
2016-10-19T20:30:38.012Z,335
2016-10-19T20:30:54.752Z,325
2016-10-19T20:31:11.518Z,315
2016-10-19T20:31:28.261Z,305
2016-10-19T20:31:45.022Z,300
2016-10-19T20:32:01.744Z,290
2016-10-19T20:32:18.491Z,285
2016-10-19T20:32:35.313Z,280
2016-10-19T20:32:52.095Z,275
2016-10-19T20:33:08.827Z,270
2016-10-19T20:33:26.071Z,265
2016-10-19T20:33:42.831Z,260
2016-10-19T20:33:59.674Z,255
2016-10-19T20:34:16.438Z,250
2016-10-19T20:34:33.191Z,245
2016-10-19T20:34:49.930Z,245
2016-10-19T20:35:06.675Z,230
2016-10-19T20:35:23.453Z,225
2016-10-19T20:35:40.195Z,220
2016-10-19T20:35:56.953Z,215
2016-10-19T20:36:13.671Z,205
2016-10-19T20:36:30.488Z,195
2016-10-19T20:36:47.259Z,195
2016-10-19T20:37:03.988Z,190
2016-10-19T20:37:20.751Z,185
2016-10-19T20:37:37.507Z,185
2016-10-19T20:37:54.294Z,175
2016-10-19T20:38:11.034Z,170
2016-10-19T20:38:27.772Z,170
2016-10-19T20:38:44.509Z,165
2016-10-19T20:39:01.261Z,165
2016-10-19T20:39:18.088Z,160
2016-10-19T20:39:34.880Z,155
2016-10-19T20:39:51.669Z,155
2016-10-19T20:40:08.434Z,150
2016-10-19T20:40:25.176Z,150
2016-10-19T20:40:41.943Z,145
2016-10-19T20:40:59.221Z,145
2016-10-19T20:41:15.967Z,145
2016-10-19T20:41:32.768Z,140
2016-10-19T20:41:49.512Z,140
2016-10-19T20:42:06.301Z,140
2016-10-19T20:42:23.075Z,135
2016-10-19T20:42:39.797Z,135
2016-10-19T20:42:56.555Z,135
2016-10-19T20:43:13.313Z,130
2016-10-19T20:43:30.055Z,130
2016-10-19T20:43:46.791Z,130
2016-10-19T20:44:03.566Z,130
2016-10-19T20:44:20.311Z,125
2016-10-19T20:44:37.112Z,125
2016-10-19T20:44:53.819Z,125
2016-10-19T20:45:10.578Z,125
2016-10-19T20:45:27.341Z,120
2016-10-19T20:45:44.104Z,120
2016-10-19T20:46:00.851Z,120
2016-10-19T20:46:17.594Z,115
2016-10-19T20:46:34.356Z,115
2016-10-19T20:46:51.122Z,115
2016-10-19T20:47:07.864Z,110
2016-10-19T20:47:24.610Z,110
2016-10-19T20:47:41.347Z,105
2016-10-19T20:47:58.107Z,105
2016-10-19T20:48:14.867Z,105
2016-10-19T20:48:31.625Z,100
2016-10-19T20:48:48.399Z,100
2016-10-19T20:49:05.151Z,100
2016-10-19T20:49:21.893Z,100
2016-10-19T20:49:38.647Z,100
2016-10-19T20:49:55.454Z,100
2016-10-19T20:50:12.199Z,95
2016-10-19T20:50:28.975Z,95
2016-10-19T20:50:45.749Z,95
2016-10-19T20:51:02.514Z,90
2016-10-19T20:51:19.269Z,90
2016-10-19T20:51:36.020Z,90
2016-10-19T20:51:52.788Z,90
2016-10-19T20:52:10.935Z,85
2016-10-19T20:52:27.717Z,85
2016-10-19T20:52:44.475Z,85
2016-10-19T20:53:01.244Z,80
2016-10-19T20:53:18.012Z,80
2016-10-19T20:53:34.756Z,80
2016-10-19T20:53:51.536Z,80
2016-10-19T20:54:08.802Z,75
2016-10-19T20:54:25.646Z,75
2016-10-19T20:54:42.385Z,75
2016-10-19T20:54:59.127Z,75
2016-10-19T20:55:15.900Z,70
2016-10-19T20:55:32.755Z,70
2016-10-19T20:55:49.518Z,70
2016-10-19T20:56:06.771Z,70
2016-10-19T20:56:23.551Z,65
2016-10-19T20:56:40.919Z,65
2016-10-19T20:56:58.226Z,65
2016-10-19T20:57:14.997Z,65
2016-10-19T20:57:32.256Z,60
2016-10-19T20:57:48.992Z,60
2016-10-19T20:58:05.745Z,60
2016-10-19T20:58:22.495Z,60
2016-10-19T20:58:39.287Z,60
2016-10-19T20:58:56.039Z,55
2016-10-19T20:59:12.902Z,55
2016-10-19T20:59:29.625Z,55
2016-10-19T20:59:46.456Z,55
2016-10-19T21:00:03.295Z,50
2016-10-19T21:00:51.276Z,50
2016-10-19T21:01:08.073Z,50
2016-10-19T21:01:24.838Z,45
2016-10-19T21:01:41.579Z,45
2016-10-19T21:01:58.314Z,45
2016-10-19T21:02:15.053Z,45
2016-10-19T21:02:32.349Z,45
2016-10-19T21:02:49.116Z,40
2016-10-19T21:03:05.850Z,40
2016-10-19T21:03:22.587Z,40
2016-10-19T21:03:39.870Z,40
2016-10-19T21:03:56.624Z,40
2016-10-19T21:04:13.385Z,35
2016-10-19T21:04:30.410Z,35
2016-10-19T21:04:47.156Z,35
2016-10-19T21:05:03.901Z,35
2016-10-19T21:05:20.664Z,35
2016-10-19T21:05:37.418Z,30
2016-10-19T21:05:54.188Z,30
2016-10-19T21:06:10.961Z,30
2016-10-19T21:06:27.725Z,30
2016-10-19T21:06:44.999Z,30
2016-10-19T21:07:01.762Z,25
2016-10-19T21:07:18.513Z,25
2016-10-19T21:07:35.280Z,25
2016-10-19T21:07:52.584Z,25
2016-10-19T21:08:09.349Z,25
2016-10-19T21:08:26.096Z,25
2016-10-19T21:08:42.833Z,20
2016-10-19T21:08:59.604Z,20
2016-10-19T21:09:16.348Z,20
2016-10-19T21:09:33.187Z,20
2016-10-19T21:09:49.947Z,20
2016-10-19T21:10:06.715Z,20
2016-10-19T21:10:23.436Z,15
2016-10-19T21:10:40.167Z,15
2016-10-19T21:10:56.921Z,15
2016-10-19T21:11:13.670Z,15
2016-10-19T21:11:30.424Z,15
2016-10-19T21:11:47.172Z,15
2016-10-19T21:12:03.935Z,15
2016-10-19T21:12:20.679Z,10
2016-10-19T21:12:37.448Z,10
2016-10-19T21:12:54.219Z,10
2016-10-19T21:13:11.476Z,10
2016-10-19T21:13:28.230Z,10
2016-10-19T21:13:44.990Z,10
2016-10-19T21:14:01.752Z,10
2016-10-19T21:14:18.502Z,10
2016-10-19T21:14:35.241Z,10
2016-10-19T21:14:52.004Z,10
2016-10-19T21:15:08.812Z,10
2016-10-19T21:15:25.562Z,5
2016-10-19T21:15:42.316Z,5
2016-10-19T21:15:59.089Z,5
2016-10-19T21:16:15.847Z,5
2016-10-19T21:16:32.601Z,5
2016-10-19T21:16:49.394Z,5
2016-10-19T21:17:06.160Z,5
2016-10-19T21:17:22.917Z,5
2016-10-19T21:17:39.689Z,5
2016-10-19T21:17:56.429Z,5
2016-10-19T21:18:13.736Z,5
2016-10-19T21:18:30.585Z,5
2016-10-19T21:19:18.795Z,5
2016-10-19T21:19:35.639Z,5
2016-10-19T21:19:52.438Z,0
2016-10-19T21:20:09.205Z,0
2016-10-19T21:20:25.964Z,0
2016-10-19T21:20:42.747Z,0
2016-10-19T21:20:59.508Z,0
2016-10-19T21:21:16.269Z,0
2016-10-19T21:21:33.075Z,0
2016-10-19T21:21:49.818Z,0
2016-10-19T21:22:07.073Z,0
2016-10-19T21:22:23.845Z,0
2016-10-19T21:22:40.578Z,0
2016-10-19T21:22:57.308Z,0
2016-10-19T21:23:14.067Z,0
2016-10-19T21:23:30.844Z,0
2016-10-19T21:23:47.605Z,0
2016-10-19T21:24:04.351Z,0
2016-10-19T21:24:21.655Z,0
2016-10-19T21:24:38.569Z,0
2016-10-19T21:24:55.322Z,0
2016-10-19T21:25:12.294Z,0
2016-10-19T21:25:29.046Z,0
2016-10-19T21:25:46.904Z,0
2016-10-19T21:26:03.652Z,0
2016-10-19T21:26:20.420Z,0
2016-10-19T21:26:37.171Z,0
2016-10-19T21:26:53.925Z,0
2016-10-19T21:27:10.663Z,0
2016-10-19T21:27:27.447Z,0
2016-10-19T21:27:44.214Z,0
2016-10-19T21:28:00.972Z,0
2016-10-19T21:28:17.700Z,0
2016-10-19T21:28:34.442Z,0
2016-10-19T21:28:51.196Z,0
2016-10-19T21:29:07.934Z,0
2016-10-19T21:29:24.704Z,0
2016-10-19T21:29:41.551Z,0
2016-10-19T21:29:58.296Z,0
2016-10-19T21:30:15.055Z,0
2016-10-19T21:30:31.850Z,0
2016-10-19T21:30:49.371Z,0
2016-10-19T21:31:06.505Z,0
2016-10-19T21:31:23.246Z,0
2016-10-19T21:31:40.034Z,0
2016-10-19T21:31:57.361Z,0
2016-10-19T21:32:28.623Z,0
2016-10-19T21:32:45.354Z,0
2016-10-19T21:33:02.467Z,0
2016-10-19T21:33:19.551Z,0
2016-10-19T21:33:36.772Z,0
2016-10-19T21:33:53.684Z,0
2016-10-19T21:34:10.799Z,0
2016-10-19T21:34:27.546Z,0
2016-10-19T21:34:44.298Z,0
2016-10-19T21:35:01.047Z,0
2016-10-19T21:35:17.794Z,0
2016-10-19T21:35:34.563Z,0
2016-10-19T21:35:51.382Z,0
2016-10-19T21:36:08.115Z,0
2016-10-19T21:36:24.860Z,0
2016-10-19T21:36:41.636Z,0
2016-10-19T21:36:58.374Z,0
2016-10-19T21:37:15.132Z,0
2016-10-19T21:37:31.921Z,0
2016-10-19T21:37:48.763Z,0
2016-10-19T21:38:05.502Z,0
2016-10-19T21:38:22.251Z,0
2016-10-19T21:38:39.713Z,0
2016-10-19T21:38:56.468Z,0
2016-10-19T21:39:13.234Z,0
2016-10-19T21:39:29.965Z,0
2016-10-19T21:39:46.813Z,0
2016-10-19T21:40:03.552Z,0
2016-10-19T21:40:20.269Z,0
2016-10-19T21:40:37.028Z,0
2016-10-19T21:40:53.795Z,0
2016-10-19T21:41:10.598Z,0
2016-10-19T21:41:27.940Z,0
2016-10-19T21:41:44.969Z,0
2016-10-19T21:42:02.263Z,0
2016-10-19T21:42:19.750Z,0
2016-10-19T21:42:36.495Z,0
2016-10-19T21:42:53.231Z,0
2016-10-19T21:43:09.982Z,0
2016-10-19T21:43:26.740Z,0
2016-10-19T21:43:43.473Z,0
2016-10-19T21:44:00.241Z,0
2016-10-19T21:44:17.475Z,0
2016-10-19T21:44:34.197Z,0
2016-10-19T21:44:50.964Z,0
2016-10-19T21:45:07.914Z,0
2016-10-19T21:45:24.657Z,0
2016-10-19T21:45:41.424Z,0
2016-10-19T21:45:58.197Z,0
2016-10-19T21:46:14.999Z,0
2016-10-19T21:46:31.783Z,0
2016-10-19T21:46:48.564Z,0
2016-10-19T21:47:05.319Z,0
2016-10-19T21:47:22.070Z,0
2016-10-19T21:47:38.819Z,0
2016-10-19T21:47:55.599Z,0
2016-10-19T21:48:12.364Z,0
2016-10-19T21:48:29.164Z,0
2016-10-19T21:48:45.908Z,0
2016-10-19T21:49:02.665Z,0
2016-10-19T21:49:19.415Z,0
2016-10-19T21:49:36.179Z,0
2016-10-19T21:49:52.956Z,0
2016-10-19T21:50:09.751Z,0
2016-10-19T21:50:26.487Z,0
2016-10-19T21:51:14.478Z,0
2016-10-19T21:51:31.221Z,0
2016-10-19T21:51:47.996Z,0
2016-10-19T21:52:04.783Z,0
2016-10-19T21:52:21.540Z,0
2016-10-19T21:52:38.307Z,0
2016-10-19T21:52:55.069Z,0
2016-10-19T21:53:11.811Z,0
2016-10-19T21:53:28.571Z,0
2016-10-19T21:53:45.391Z,0
2016-10-19T21:54:02.189Z,0
2016-10-19T21:54:18.985Z,0
2016-10-19T21:54:35.759Z,0
2016-10-19T21:54:52.738Z,0
2016-10-19T21:55:09.519Z,0
2016-10-19T21:55:26.304Z,0
2016-10-19T21:55:43.077Z,0
2016-10-19T21:55:59.826Z,0
2016-10-19T21:56:16.627Z,0
2016-10-19T21:56:33.924Z,0
2016-10-19T21:56:50.725Z,0
2016-10-19T21:57:07.476Z,0
2016-10-19T21:57:24.250Z,0
2016-10-19T21:57:41.542Z,0
2016-10-19T21:57:58.491Z,0
2016-10-19T21:58:15.267Z,0
2016-10-19T21:58:32.002Z,0
2016-10-19T21:58:48.753Z,0
2016-10-19T21:59:05.535Z,0
2016-10-19T21:59:22.271Z,0
2016-10-19T21:59:39.037Z,0
2016-10-19T21:59:55.780Z,0
2016-10-19T22:00:12.564Z,0
2016-10-19T22:00:29.308Z,0
2016-10-19T22:00:46.054Z,0
2016-10-19T22:01:02.779Z,0
2016-10-19T22:01:20.036Z,0
2016-10-19T22:01:36.772Z,0
2016-10-19T22:01:53.524Z,0
2016-10-19T22:02:10.290Z,0
2016-10-19T22:02:27.045Z,0
2016-10-19T22:02:43.814Z,0
2016-10-19T22:03:00.558Z,0
2016-10-19T22:03:17.304Z,0
2016-10-19T22:03:34.046Z,0
2016-10-19T22:03:50.794Z,0
2016-10-19T22:04:07.559Z,0
2016-10-19T22:04:24.840Z,0
2016-10-19T22:04:41.602Z,0
2016-10-19T22:04:58.421Z,0
2016-10-19T22:05:15.166Z,0
2016-10-19T22:05:31.930Z,0
2016-10-19T22:05:48.721Z,0
2016-10-19T22:06:05.499Z,0
2016-10-19T22:06:22.231Z,0
2016-10-19T22:06:38.971Z,0
2016-10-19T22:06:55.731Z,0
2016-10-19T22:07:12.497Z,0
2016-10-19T22:07:29.235Z,0
2016-10-19T22:07:45.990Z,0
2016-10-19T22:08:02.765Z,0
2016-10-19T22:08:19.527Z,0
2016-10-19T22:08:36.288Z,0
2016-10-19T22:08:53.084Z,0
2016-10-19T22:09:09.822Z,0
2016-10-19T22:09:26.560Z,0
2016-10-19T22:09:43.320Z,0
2016-10-19T22:10:00.184Z,0
2016-10-19T22:10:17.473Z,0
2016-10-19T22:10:34.233Z,0
2016-10-19T22:10:51.683Z,0
2016-10-19T22:11:08.403Z,0
2016-10-19T22:11:25.153Z,0
2016-10-19T22:11:41.896Z,0
2016-10-19T22:11:58.634Z,0
2016-10-19T22:12:15.931Z,0
2016-10-19T22:12:32.682Z,0
2016-10-19T22:12:49.496Z,0
2016-10-19T22:13:06.261Z,0
2016-10-19T22:13:22.996Z,0
2016-10-19T22:13:39.762Z,0
2016-10-19T22:13:56.528Z,0
2016-10-19T22:14:13.263Z,0
2016-10-19T22:14:30.012Z,0
2016-10-19T22:14:46.754Z,0
2016-10-19T22:15:03.495Z,0
2016-10-19T22:15:20.242Z,0
2016-10-19T22:15:37.124Z,0
2016-10-19T22:15:53.880Z,0
2016-10-19T22:16:10.621Z,0
2016-10-19T22:16:27.367Z,0
2016-10-19T22:16:44.119Z,0
2016-10-19T22:17:01.090Z,0
2016-10-19T22:17:17.892Z,0
2016-10-19T22:17:34.695Z,0
2016-10-19T22:17:51.483Z,0
2016-10-19T22:18:08.741Z,0
2016-10-19T22:18:25.563Z,0
2016-10-19T22:18:42.356Z,0
2016-10-19T22:18:59.147Z,0
2016-10-19T22:19:15.886Z,0
2016-10-19T22:19:32.633Z,0
2016-10-19T22:19:49.443Z,0
2016-10-19T22:20:06.231Z,0
2016-10-19T22:20:23.005Z,0
2016-10-19T22:20:39.770Z,0
2016-10-19T22:20:56.547Z,0
2016-10-19T22:21:13.354Z,0
2016-10-19T22:21:30.130Z,0
2016-10-19T22:21:47.393Z,0
2016-10-19T22:22:04.145Z,0
2016-10-19T22:22:20.887Z,0
2016-10-19T22:22:37.638Z,0
2016-10-19T22:22:54.492Z,0
2016-10-19T22:23:11.301Z,0
2016-10-19T22:23:28.045Z,0
2016-10-19T22:23:44.893Z,0
2016-10-19T22:24:01.663Z,0
2016-10-19T22:24:18.408Z,0
2016-10-19T22:24:35.157Z,0
2016-10-19T22:24:51.893Z,0
2016-10-19T22:25:08.785Z,0
2016-10-19T22:25:25.545Z,0
2016-10-19T22:25:42.302Z,0
2016-10-19T22:25:59.061Z,0
2016-10-19T22:26:15.823Z,0
2016-10-19T22:26:32.619Z,0
2016-10-19T22:26:49.426Z,0
2016-10-19T22:27:06.254Z,0
2016-10-19T22:27:23.036Z,0
2016-10-19T22:27:39.789Z,0
2016-10-19T22:27:56.564Z,0
2016-10-19T22:28:13.307Z,0
2016-10-19T22:28:30.094Z,0
2016-10-19T22:28:47.364Z,0
2016-10-19T22:29:04.635Z,0
2016-10-19T22:29:21.416Z,0
2016-10-19T22:29:38.238Z,0
2016-10-19T22:29:54.975Z,0
2016-10-19T22:30:11.741Z,0
2016-10-19T22:30:28.505Z,0
2016-10-19T22:30:45.244Z,0
2016-10-19T22:31:02.012Z,0
2016-10-19T22:31:18.773Z,0
2016-10-19T22:31:35.564Z,0
2016-10-19T22:31:52.352Z,0
2016-10-19T22:32:09.105Z,0
2016-10-19T22:32:25.859Z,0
2016-10-19T22:32:42.598Z,0
2016-10-19T22:32:59.396Z,0
2016-10-19T22:33:16.139Z,0
2016-10-19T22:33:32.924Z,0
2016-10-19T22:33:49.699Z,0
2016-10-19T22:34:06.439Z,0
2016-10-19T22:34:23.216Z,0
2016-10-19T22:34:39.955Z,0
2016-10-19T22:34:56.710Z,0
2016-10-19T22:35:13.509Z,0
2016-10-19T22:35:30.271Z,0
2016-10-19T22:35:47.034Z,0
2016-10-19T22:36:03.763Z,0
2016-10-19T22:36:20.515Z,0
2016-10-19T22:36:37.260Z,0
2016-10-19T22:36:54.002Z,0
2016-10-19T22:37:10.757Z,0
2016-10-19T22:37:27.514Z,0
2016-10-19T22:37:44.345Z,0
2016-10-19T22:38:01.066Z,0
2016-10-19T22:38:17.803Z,0
2016-10-19T22:38:34.568Z,0
2016-10-19T22:38:51.360Z,0
2016-10-19T22:39:08.140Z,0
2016-10-19T22:39:24.909Z,0
2016-10-19T22:39:41.655Z,0
2016-10-19T22:39:58.921Z,0
2016-10-19T22:40:15.778Z,0
2016-10-19T22:40:32.565Z,0
2016-10-19T22:40:49.307Z,0
2016-10-19T22:41:06.043Z,0
2016-10-19T22:41:23.315Z,0
2016-10-19T22:41:40.103Z,0
2016-10-19T22:41:57.350Z,0
2016-10-19T22:42:14.080Z,0
2016-10-19T22:42:31.414Z,0
2016-10-19T22:42:48.176Z,0
2016-10-19T22:43:04.947Z,0
2016-10-19T22:43:21.700Z,0
2016-10-19T22:43:38.497Z,0
2016-10-19T22:43:55.264Z,0
2016-10-19T22:44:12.534Z,0
2016-10-19T22:44:29.389Z,0
2016-10-19T22:44:46.151Z,0
2016-10-19T22:45:02.876Z,0
2016-10-19T22:45:19.628Z,0
2016-10-19T22:45:36.372Z,0
2016-10-19T22:45:53.640Z,0
2016-10-19T22:46:10.399Z,0
2016-10-19T22:46:27.188Z,0
2016-10-19T22:46:43.987Z,0
2016-10-19T22:47:00.737Z,0
2016-10-19T22:47:17.482Z,0
2016-10-19T22:47:34.305Z,0
2016-10-19T22:47:51.256Z,0
2016-10-19T22:48:08.051Z,0
2016-10-19T22:48:24.829Z,0
2016-10-19T22:48:41.570Z,0
2016-10-19T22:48:58.335Z,0
2016-10-19T22:49:15.605Z,0
2016-10-19T22:49:32.334Z,0
2016-10-19T22:49:49.105Z,0
2016-10-19T22:50:06.386Z,0
2016-10-19T22:50:54.351Z,0
2016-10-19T22:51:11.643Z,0
2016-10-19T22:51:28.766Z,0
2016-10-19T22:51:45.525Z,0
2016-10-19T22:52:02.284Z,0
2016-10-19T22:52:19.038Z,0
2016-10-19T22:52:35.791Z,0
2016-10-19T22:52:53.051Z,0
2016-10-19T22:53:09.790Z,0
2016-10-19T22:53:26.544Z,0
2016-10-19T22:53:43.349Z,0
2016-10-19T22:54:00.107Z,0
2016-10-19T22:54:17.372Z,0
2016-10-19T22:54:34.107Z,0
2016-10-19T22:54:51.381Z,0
2016-10-19T22:55:08.148Z,0
2016-10-19T22:55:25.483Z,0
2016-10-19T22:55:42.222Z,0
2016-10-19T22:55:58.966Z,0
2016-10-19T22:56:15.763Z,0
2016-10-19T22:56:32.542Z,0
2016-10-19T22:56:49.344Z,0
2016-10-19T22:57:06.139Z,0
2016-10-19T22:57:23.100Z,0
2016-10-19T22:57:39.887Z,0
2016-10-19T22:57:56.629Z,0
2016-10-19T22:58:13.399Z,0
2016-10-19T22:58:30.135Z,0
2016-10-19T22:58:46.918Z,0
2016-10-19T22:59:03.674Z,0
2016-10-19T22:59:20.416Z,0
2016-10-19T22:59:37.132Z,0
2016-10-19T22:59:53.867Z,0
2016-10-19T23:00:10.638Z,0
2016-10-19T23:00:27.497Z,0
2016-10-19T23:00:44.240Z,0
2016-10-19T23:01:00.992Z,0
2016-10-19T23:01:17.780Z,0
2016-10-19T23:01:34.541Z,0
2016-10-19T23:01:51.290Z,0
2016-10-19T23:02:08.045Z,0
2016-10-19T23:02:24.816Z,0
2016-10-19T23:02:41.563Z,0
2016-10-19T23:02:58.364Z,0
2016-10-19T23:03:15.128Z,0
2016-10-19T23:03:31.877Z,0
2016-10-19T23:03:48.641Z,0
2016-10-19T23:04:05.387Z,0
2016-10-19T23:04:22.128Z,0
2016-10-19T23:04:38.907Z,0
2016-10-19T23:04:55.653Z,0
2016-10-19T23:05:12.418Z,0
2016-10-19T23:05:29.171Z,0
2016-10-19T23:05:45.913Z,0
2016-10-19T23:06:03.164Z,0
2016-10-19T23:06:19.905Z,0
2016-10-19T23:06:36.609Z,0
2016-10-19T23:06:53.377Z,0
2016-10-19T23:07:10.127Z,0
2016-10-19T23:07:26.873Z,0
2016-10-19T23:07:43.621Z,0
2016-10-19T23:08:00.353Z,0
2016-10-19T23:08:17.826Z,0
2016-10-19T23:08:34.579Z,0
2016-10-19T23:08:51.356Z,0
2016-10-19T23:09:08.648Z,0
2016-10-19T23:09:25.418Z,0
2016-10-19T23:09:42.147Z,0
2016-10-19T23:09:58.891Z,0
2016-10-19T23:10:15.695Z,0
2016-10-19T23:10:32.542Z,0
2016-10-19T23:10:49.370Z,0
2016-10-19T23:11:06.138Z,0
2016-10-19T23:11:22.858Z,0
2016-10-19T23:11:39.587Z,0
2016-10-19T23:11:56.322Z,0
2016-10-19T23:12:13.081Z,0
2016-10-19T23:12:29.816Z,0
2016-10-19T23:12:46.573Z,0
2016-10-19T23:13:03.322Z,0
2016-10-19T23:13:20.075Z,0
2016-10-19T23:13:36.847Z,0
2016-10-19T23:13:53.591Z,0
2016-10-19T23:14:10.354Z,0
2016-10-19T23:14:27.078Z,0
2016-10-19T23:14:44.559Z,0
2016-10-19T23:15:01.316Z,0
2016-10-19T23:15:18.112Z,0
2016-10-19T23:15:34.870Z,0
2016-10-19T23:15:51.645Z,0
2016-10-19T23:16:08.383Z,0
2016-10-19T23:16:25.208Z,0
2016-10-19T23:16:42.171Z,0
2016-10-19T23:16:58.941Z,0
2016-10-19T23:17:15.698Z,0
2016-10-19T23:17:32.462Z,0
2016-10-19T23:17:49.255Z,0
2016-10-19T23:18:05.990Z,0
2016-10-19T23:18:22.735Z,0
2016-10-19T23:18:39.492Z,0
2016-10-19T23:18:56.232Z,0
2016-10-19T23:19:12.976Z,0